Oscar Tybring IV — LAGK — position and weather

sailwx.info

Track history (hours):
 
Tides and Currents Weather Stations Pressure Air Temp Water Temp Dewpoint Dewpoint Depression Visibility Wind Speed Wind Dir Waves Ship Positions

Oscar Tybring IV

Last reported at 2017-Nov-25 11:30 UTC. Time now 2017-Nov-25 11:50 UTC.
Position N 58°06' E 006°48'.

Length 20 m.

Type: SAR. MMSI: 257231500.

Date/timePositionNaut miles runAvg speedWind from/ knotsBaromVisibWave heightAir tempDewpointWater temp
2017-Nov-25 11:30N 58°06' E 006°48'0 0.0
2017-Nov-25 11:00N 58°06' E 006°48'1 2.7
2017-Nov-25 10:30N 58°05' E 006°50'1 2.7
2017-Nov-25 10:00N 58°03' E 006°51'3 5.0
2017-Nov-25 09:28N 58°06' E 006°48'0 0.0
2017-Nov-25 08:58N 58°06' E 006°48'4 7.9
2017-Nov-25 08:30N 58°03' E 006°54'3 6.3
2017-Nov-25 08:00N 58°05' E 006°49'0 0.9
2017-Nov-25 07:28N 58°06' E 006°48'0 0.0
2017-Nov-25 06:58N 58°06' E 006°48'0 0.0
2017-Nov-25 06:28N 58°06' E 006°48'0 0.0
2017-Nov-25 05:58N 58°06' E 006°48'0 0.0
2017-Nov-25 05:28N 58°06' E 006°48'0 0.0
2017-Nov-25 04:58N 58°06' E 006°48'0 0.0
2017-Nov-25 04:28N 58°06' E 006°48'0 0.0
2017-Nov-25 03:58N 58°06' E 006°48'0 0.0
2017-Nov-25 03:28N 58°06' E 006°48'0 0.0
2017-Nov-25 02:58N 58°06' E 006°48'0 0.0
2017-Nov-25 02:28N 58°06' E 006°48'0 0.0
2017-Nov-25 01:58N 58°06' E 006°48'0 0.0
2017-Nov-25 01:28N 58°06' E 006°48'0 0.0
2017-Nov-25 00:55N 58°06' E 006°48'0 0.0
2017-Nov-25 00:28N 58°06' E 006°48'0 0.0
2017-Nov-24 23:58N 58°06' E 006°48'0 0.0
2017-Nov-24 23:28N 58°06' E 006°48'0 0.0
2017-Nov-24 22:58N 58°06' E 006°48'0 0.0
2017-Nov-24 22:25N 58°06' E 006°48'0 0.0
2017-Nov-24 21:58N 58°06' E 006°48'0 0.0
2017-Nov-24 21:28N 58°06' E 006°48'0 0.0
2017-Nov-24 20:58N 58°06' E 006°48'0 0.0
2017-Nov-24 20:28N 58°06' E 006°48'0 0.0
2017-Nov-24 19:58N 58°06' E 006°48'0 0.0
2017-Nov-24 19:28N 58°06' E 006°48'0 0.0
2017-Nov-24 18:55N 58°06' E 006°48'0 0.0
2017-Nov-24 18:28N 58°06' E 006°48'0 0.0
2017-Nov-24 17:58N 58°06' E 006°48'0 0.0
2017-Nov-24 17:28N 58°06' E 006°48'0 0.0
2017-Nov-24 16:58N 58°06' E 006°48'0 0.0
2017-Nov-24 16:28N 58°06' E 006°48'0 0.0
2017-Nov-24 15:58N 58°06' E 006°48'0 0.0
2017-Nov-24 15:28N 58°06' E 006°48'0 0.0
2017-Nov-24 14:58N 58°06' E 006°48'0 0.0
2017-Nov-24 14:28N 58°06' E 006°48'0 0.0
2017-Nov-24 13:58N 58°06' E 006°48'0 0.0
2017-Nov-24 13:28N 58°06' E 006°48'0 0.0
2017-Nov-24 12:58N 58°06' E 006°48'0 0.0
2017-Nov-24 12:28N 58°06' E 006°48'0 0.0
2017-Nov-24 11:57N 58°06' E 006°48'0 0.0
2017-Nov-24 11:30N 58°06' E 006°48'0 0.0
2017-Nov-24 11:00N 58°06' E 006°48'0 0.0
2017-Nov-24 10:29N 58°06' E 006°48'611.9
2017-Nov-24 10:00N 58°00' E 006°52'5 9.8
2017-Nov-24 09:29N 58°05' E 006°49'1 1.4
2017-Nov-24 08:58N 58°06' E 006°48'0 0.0
2017-Nov-24 08:26N 58°06' E 006°48'0 0.0
2017-Nov-24 07:55N 58°06' E 006°48'0 0.0
2017-Nov-24 07:28N 58°06' E 006°48'2 4.4
2017-Nov-24 07:00N 58°04' E 006°51'2 3.8
2017-Nov-24 06:30N 58°06' E 006°49'0 0.3
2017-Nov-24 06:00N 58°06' E 006°48'0 0.0
2017-Nov-24 05:30N 58°06' E 006°48'0 0.0
2017-Nov-24 05:00N 58°06' E 006°48'0 0.0
2017-Nov-24 04:30N 58°06' E 006°48'0 0.0
2017-Nov-24 04:00N 58°06' E 006°48'0 0.0
2017-Nov-24 03:30N 58°06' E 006°48'0 0.0
2017-Nov-24 03:00N 58°06' E 006°48'0 0.0
2017-Nov-24 02:30N 58°06' E 006°48'0 0.0
2017-Nov-24 02:00N 58°06' E 006°48'0 0.0
2017-Nov-24 01:30N 58°06' E 006°48'0 0.0
2017-Nov-24 01:00N 58°06' E 006°48'0 0.0
2017-Nov-24 00:30N 58°06' E 006°48'0 0.0
2017-Nov-23 23:57N 58°06' E 006°48'0 0.0
2017-Nov-23 23:30N 58°06' E 006°48'0 0.0
2017-Nov-23 23:00N 58°06' E 006°48'0 0.0
2017-Nov-23 22:30N 58°06' E 006°48'0 0.0
2017-Nov-23 22:00N 58°06' E 006°48'0 0.0
2017-Nov-23 21:27N 58°06' E 006°48'0 0.0
2017-Nov-23 21:00N 58°06' E 006°48'0 0.0
2017-Nov-23 20:30N 58°06' E 006°48'0 0.0
2017-Nov-23 20:00N 58°06' E 006°48'0 0.0
2017-Nov-23 19:30N 58°06' E 006°48'0 0.0
2017-Nov-23 19:00N 58°06' E 006°48'0 0.0
2017-Nov-23 18:30N 58°06' E 006°48'0 0.0
2017-Nov-23 18:00N 58°06' E 006°48'0 0.0
2017-Nov-23 17:30N 58°06' E 006°48'0 0.0
2017-Nov-23 17:00N 58°06' E 006°48'0 0.0
2017-Nov-23 16:30N 58°06' E 006°48'0 0.0
2017-Nov-23 16:00N 58°06' E 006°48'0 0.0
2017-Nov-23 15:30N 58°06' E 006°48'0 0.0
2017-Nov-23 15:00N 58°06' E 006°48'0 0.0
2017-Nov-23 14:30N 58°06' E 006°48'0 0.0
2017-Nov-23 14:00N 58°06' E 006°48'0 0.0
2017-Nov-23 13:30N 58°06' E 006°48'0 0.0
2017-Nov-23 13:00N 58°06' E 006°48'0 0.0
2017-Nov-23 12:30N 58°06' E 006°48'0 0.0
2017-Nov-23 12:00N 58°06' E 006°48'0 0.0
2017-Nov-23 11:30N 58°06' E 006°48'0 0.0
2017-Nov-23 11:00N 58°06' E 006°48'0 0.0
2017-Nov-23 10:30N 58°06' E 006°48'0 0.0
2017-Nov-23 10:00N 58°06' E 006°48'0 0.0
2017-Nov-23 09:30N 58°06' E 006°48'0 0.0
2017-Nov-23 09:00N 58°06' E 006°48'0 0.0
2017-Nov-23 08:30N 58°06' E 006°48'0 0.0
2017-Nov-23 08:00N 58°06' E 006°48'0 0.0
2017-Nov-23 07:30N 58°06' E 006°48'0 0.0
2017-Nov-23 07:00N 58°06' E 006°48'0 0.0
2017-Nov-23 06:30N 58°06' E 006°48'0 0.0
2017-Nov-23 06:00N 58°06' E 006°48'0 0.0
2017-Nov-23 05:30N 58°06' E 006°48'0 0.0
2017-Nov-23 05:00N 58°06' E 006°48'0 0.0
2017-Nov-23 04:30N 58°06' E 006°48'0 0.0
2017-Nov-23 04:00N 58°06' E 006°48'0 0.0
2017-Nov-23 03:30N 58°06' E 006°48'0 0.0
2017-Nov-23 03:00N 58°06' E 006°48'0 0.0
2017-Nov-23 02:30N 58°06' E 006°48'0 0.0
2017-Nov-23 02:00N 58°06' E 006°48'0 0.0
2017-Nov-23 01:30N 58°06' E 006°48'0 0.0
2017-Nov-23 01:00N 58°06' E 006°48'0 0.0
2017-Nov-23 00:30N 58°06' E 006°48'0 0.0
2017-Nov-23 00:00N 58°06' E 006°48'0 0.0
2017-Nov-22 23:30N 58°06' E 006°48'0 0.0
2017-Nov-22 23:00N 58°06' E 006°48'0 0.0
2017-Nov-22 22:30N 58°06' E 006°48'0 0.0
2017-Nov-22 22:00N 58°06' E 006°48'0 0.0
2017-Nov-22 21:30N 58°06' E 006°48'0 0.0
2017-Nov-22 21:00N 58°06' E 006°48'0 0.0
2017-Nov-22 20:30N 58°06' E 006°48'0 0.0
2017-Nov-22 20:00N 58°06' E 006°48'0 0.0
2017-Nov-22 19:30N 58°06' E 006°48'  
2017-Nov-20 00:28N 58°06' E 006°48'0 0.0
2017-Nov-19 23:58N 58°06' E 006°48'0 0.0
2017-Nov-19 23:28N 58°06' E 006°48'0 0.0
2017-Nov-19 22:58N 58°06' E 006°48'0 0.0
2017-Nov-19 22:28N 58°06' E 006°48'0 0.0
2017-Nov-19 21:58N 58°06' E 006°48'0 0.0
2017-Nov-19 21:28N 58°06' E 006°48'0 0.0
2017-Nov-19 20:58N 58°06' E 006°48'0 0.0
2017-Nov-19 20:28N 58°06' E 006°48'0 0.0
2017-Nov-19 19:58N 58°06' E 006°48'0 0.0
2017-Nov-19 19:28N 58°06' E 006°48'0 0.0
2017-Nov-19 18:58N 58°06' E 006°48'0 0.0
2017-Nov-19 18:28N 58°06' E 006°48'0 0.0
2017-Nov-19 17:58N 58°06' E 006°48'0 0.0
2017-Nov-19 17:28N 58°06' E 006°48'0 0.0
2017-Nov-19 16:58N 58°06' E 006°48'0 0.0
2017-Nov-19 16:28N 58°06' E 006°48'0 0.0
2017-Nov-19 15:58N 58°06' E 006°48'0 0.0
2017-Nov-19 15:28N 58°06' E 006°48'0 0.0
2017-Nov-19 14:58N 58°06' E 006°48'0 0.0
2017-Nov-19 14:28N 58°06' E 006°48'0 0.0
2017-Nov-19 13:58N 58°06' E 006°48'0 0.0
2017-Nov-19 13:28N 58°06' E 006°48'0 0.0
2017-Nov-19 12:58N 58°06' E 006°48'0 0.0
2017-Nov-19 12:28N 58°06' E 006°48'0 0.0
2017-Nov-19 11:58N 58°06' E 006°48'0 0.0
2017-Nov-19 11:28N 58°06' E 006°48'0 0.0
2017-Nov-19 10:58N 58°06' E 006°48'0 0.0
2017-Nov-19 10:28N 58°06' E 006°48'0 0.0
2017-Nov-19 09:58N 58°06' E 006°48'0 0.0
2017-Nov-19 09:28N 58°06' E 006°48'0 0.0
2017-Nov-19 08:58N 58°06' E 006°48'0 0.0
2017-Nov-19 08:28N 58°06' E 006°48'0 0.0
2017-Nov-19 07:58N 58°06' E 006°48'0 0.0
2017-Nov-19 07:28N 58°06' E 006°48'0 0.0
2017-Nov-19 06:58N 58°06' E 006°48'0 0.0
2017-Nov-19 06:28N 58°06' E 006°48'0 0.0
2017-Nov-19 05:58N 58°06' E 006°48'0 0.0
2017-Nov-19 05:28N 58°06' E 006°48'0 0.0
2017-Nov-19 04:58N 58°06' E 006°48'0 0.0
2017-Nov-19 04:28N 58°06' E 006°48'0 0.0
2017-Nov-19 03:58N 58°06' E 006°48'0 0.0
2017-Nov-19 03:28N 58°06' E 006°48'0 0.0
2017-Nov-19 02:58N 58°06' E 006°48'0 0.0
2017-Nov-19 02:28N 58°06' E 006°48'0 0.0
2017-Nov-19 01:58N 58°06' E 006°48'0 0.0
2017-Nov-19 01:28N 58°06' E 006°48'0 0.0
2017-Nov-19 00:58N 58°06' E 006°48'0 0.0
2017-Nov-19 00:28N 58°06' E 006°48'0 0.0
2017-Nov-18 23:58N 58°06' E 006°48'0 0.0
2017-Nov-18 23:28N 58°06' E 006°48'0 0.0
2017-Nov-18 22:58N 58°06' E 006°48'0 0.0
2017-Nov-18 22:28N 58°06' E 006°48'0 0.0
2017-Nov-18 21:58N 58°06' E 006°48'0 0.0
2017-Nov-18 21:28N 58°06' E 006°48'0 0.0
2017-Nov-18 20:58N 58°06' E 006°48'0 0.0
2017-Nov-18 20:28N 58°06' E 006°48'0 0.0
2017-Nov-18 19:58N 58°06' E 006°48'0 0.0
2017-Nov-18 19:28N 58°06' E 006°48'0 0.0
2017-Nov-18 18:58N 58°06' E 006°48'0 0.0
2017-Nov-18 18:28N 58°06' E 006°48'0 0.0
2017-Nov-18 17:58N 58°06' E 006°48'0 0.0
2017-Nov-18 17:28N 58°06' E 006°48'0 0.0
2017-Nov-18 16:58N 58°06' E 006°48'0 0.0
2017-Nov-18 16:28N 58°06' E 006°48'0 0.0
2017-Nov-18 15:58N 58°06' E 006°48'0 0.0
2017-Nov-18 15:28N 58°06' E 006°48'0 0.0
2017-Nov-18 14:58N 58°06' E 006°48'0 0.0
2017-Nov-18 14:28N 58°06' E 006°48'0 0.0
2017-Nov-18 13:58N 58°06' E 006°48'0 0.0
2017-Nov-18 13:28N 58°06' E 006°48'0 0.0
2017-Nov-18 12:58N 58°06' E 006°48'0 0.0
2017-Nov-18 12:28N 58°06' E 006°48'0 0.0
2017-Nov-18 11:58N 58°06' E 006°48'0 0.0
2017-Nov-18 11:28N 58°06' E 006°48'0 0.0
2017-Nov-18 10:58N 58°06' E 006°48'0 0.0
2017-Nov-18 10:28N 58°06' E 006°48'0 0.0
2017-Nov-18 09:58N 58°06' E 006°48'0 0.0
2017-Nov-18 09:25N 58°06' E 006°48'0 0.0
2017-Nov-18 08:58N 58°06' E 006°48'0 0.0
2017-Nov-18 08:28N 58°06' E 006°48'0 0.0
2017-Nov-18 07:58N 58°06' E 006°48'0 0.0
2017-Nov-18 07:28N 58°06' E 006°48'0 0.0
2017-Nov-18 06:58N 58°06' E 006°48'0 0.0
2017-Nov-18 06:28N 58°06' E 006°48'0 0.0
2017-Nov-18 05:58N 58°06' E 006°48'0 0.0
2017-Nov-18 05:28N 58°06' E 006°48'0 0.0
2017-Nov-18 04:58N 58°06' E 006°48'0 0.0
2017-Nov-18 04:28N 58°06' E 006°48'0 0.0
2017-Nov-18 03:58N 58°06' E 006°48'0 0.0
2017-Nov-18 03:28N 58°06' E 006°48'0 0.0
2017-Nov-18 02:58N 58°06' E 006°48'0 0.0
2017-Nov-18 02:28N 58°06' E 006°48'0 0.0
2017-Nov-18 01:58N 58°06' E 006°48'0 0.0
2017-Nov-18 01:28N 58°06' E 006°48'0 0.0
2017-Nov-18 00:58N 58°06' E 006°48'0 0.0
2017-Nov-18 00:28N 58°06' E 006°48'0 0.0
2017-Nov-17 23:58N 58°06' E 006°48'0 0.0
2017-Nov-17 23:28N 58°06' E 006°48'0 0.0
2017-Nov-17 22:58N 58°06' E 006°48'0 0.0
2017-Nov-17 22:28N 58°06' E 006°48'0 0.0
2017-Nov-17 21:58N 58°06' E 006°48'0 0.0
2017-Nov-17 21:28N 58°06' E 006°48'0 0.0
2017-Nov-17 20:58N 58°06' E 006°48'0 0.0
2017-Nov-17 20:28N 58°06' E 006°48'0 0.0
2017-Nov-17 19:58N 58°06' E 006°48'0 0.0
2017-Nov-17 19:28N 58°06' E 006°48'0 0.0
2017-Nov-17 18:58N 58°06' E 006°48'0 0.0
2017-Nov-17 18:25N 58°06' E 006°48'0 0.0
2017-Nov-17 17:58N 58°06' E 006°48'0 0.0
2017-Nov-17 17:28N 58°06' E 006°48'0 0.0
2017-Nov-17 16:58N 58°06' E 006°48'0 0.0
2017-Nov-17 16:28N 58°06' E 006°48'0 0.0
2017-Nov-17 15:58N 58°06' E 006°48'0 0.0
2017-Nov-17 15:28N 58°06' E 006°48'0 0.0
2017-Nov-17 14:58N 58°06' E 006°48'0 0.0
2017-Nov-17 14:28N 58°06' E 006°48'0 0.0
2017-Nov-17 13:58N 58°06' E 006°48'0 0.0
2017-Nov-17 13:30N 58°06' E 006°48'0 0.0
2017-Nov-17 13:00N 58°06' E 006°48'0 0.0
2017-Nov-17 12:30N 58°06' E 006°48'0 0.0
2017-Nov-17 12:00N 58°06' E 006°48'0 0.0
2017-Nov-17 11:30N 58°06' E 006°48'0 0.0
2017-Nov-17 11:00N 58°06' E 006°48'0 0.0
2017-Nov-17 10:30N 58°06' E 006°48'4 7.4
2017-Nov-17 09:58N 58°09' E 006°51'2 3.7
2017-Nov-17 09:29N 58°11' E 006°52'2 4.5
2017-Nov-17 09:00N 58°09' E 006°49'2 4.7
2017-Nov-17 08:30N 58°08' E 006°52'3 6.0
2017-Nov-17 08:00N 58°06' E 006°48'0 0.0
2017-Nov-17 07:30N 58°06' E 006°48'0 0.0
2017-Nov-17 06:59N 58°06' E 006°48'0 0.0
2017-Nov-17 06:29N 58°06' E 006°48'0 0.0
2017-Nov-17 06:00N 58°06' E 006°48'0 0.0
2017-Nov-17 05:30N 58°06' E 006°48'0 0.0
2017-Nov-17 05:00N 58°06' E 006°48'0 0.0
2017-Nov-17 04:29N 58°06' E 006°48'0 0.0
2017-Nov-17 04:00N 58°06' E 006°48'0 0.0
2017-Nov-17 03:30N 58°06' E 006°48'0 0.0
2017-Nov-17 02:59N 58°06' E 006°48'0 0.0
2017-Nov-17 02:29N 58°06' E 006°48'0 0.0
2017-Nov-17 01:59N 58°06' E 006°48'0 0.0
2017-Nov-17 01:29N 58°06' E 006°48'0 0.0
2017-Nov-17 01:00N 58°06' E 006°48'0 0.0
2017-Nov-17 00:29N 58°06' E 006°48'0 0.0
2017-Nov-16 23:59N 58°06' E 006°48'0 0.0
2017-Nov-16 23:30N 58°06' E 006°48'0 0.0
2017-Nov-16 22:59N 58°06' E 006°48'0 0.0
2017-Nov-16 22:30N 58°06' E 006°48'0 0.0
2017-Nov-16 21:59N 58°06' E 006°48'0 0.0
2017-Nov-16 21:30N 58°06' E 006°48'0 0.0
2017-Nov-16 20:59N 58°06' E 006°48'0 0.0
2017-Nov-16 20:29N 58°06' E 006°48'0 0.0
2017-Nov-16 19:59N 58°06' E 006°48'0 0.0
2017-Nov-16 19:29N 58°06' E 006°48'0 0.0
2017-Nov-16 19:00N 58°06' E 006°48'0 0.0
2017-Nov-16 18:29N 58°06' E 006°48'0 0.0
2017-Nov-16 17:59N 58°06' E 006°48'0 0.0
2017-Nov-16 17:29N 58°06' E 006°48'0 0.0
2017-Nov-16 16:59N 58°06' E 006°48'0 0.0
2017-Nov-16 16:29N 58°06' E 006°48'0 0.0
2017-Nov-16 16:00N 58°06' E 006°48'0 0.0
2017-Nov-16 15:29N 58°06' E 006°48'0 0.0
2017-Nov-16 14:59N 58°06' E 006°48'0 0.0
2017-Nov-16 14:29N 58°06' E 006°48'0 0.0
2017-Nov-16 13:59N 58°06' E 006°48'0 0.0
2017-Nov-16 13:29N 58°06' E 006°48'0 0.0
2017-Nov-16 13:00N 58°06' E 006°48'0 0.0
2017-Nov-16 12:29N 58°06' E 006°48'0 0.0
2017-Nov-16 12:00N 58°06' E 006°48'0 0.0
2017-Nov-16 11:30N 58°06' E 006°48'0 0.0
2017-Nov-16 11:00N 58°06' E 006°48'0 0.0
2017-Nov-16 10:29N 58°06' E 006°48'0 0.0
2017-Nov-16 09:59N 58°06' E 006°48'0 0.0
2017-Nov-16 09:29N 58°06' E 006°48'0 0.0
2017-Nov-16 09:00N 58°06' E 006°48'0 0.0
2017-Nov-16 08:29N 58°06' E 006°48'0 0.0
2017-Nov-16 07:59N 58°06' E 006°48'0 0.0
2017-Nov-16 07:30N 58°06' E 006°48'0 0.0
2017-Nov-16 06:59N 58°06' E 006°48'0 0.0
2017-Nov-16 06:29N 58°06' E 006°48'0 0.0
2017-Nov-16 05:59N 58°06' E 006°48'0 0.0
2017-Nov-16 05:29N 58°06' E 006°48'0 0.0
2017-Nov-16 04:59N 58°06' E 006°48'0 0.0
2017-Nov-16 04:30N 58°06' E 006°48'0 0.0
2017-Nov-16 03:59N 58°06' E 006°48'0 0.0
2017-Nov-16 03:30N 58°06' E 006°48'0 0.0
2017-Nov-16 03:00N 58°06' E 006°48'0 0.0
2017-Nov-16 02:29N 58°06' E 006°48'0 0.0
2017-Nov-16 01:59N 58°06' E 006°48'0 0.0
2017-Nov-16 01:30N 58°06' E 006°48'0 0.0
2017-Nov-16 00:59N 58°06' E 006°48'0 0.0
2017-Nov-16 00:29N 58°06' E 006°48'0 0.0
2017-Nov-15 23:59N 58°06' E 006°48'0 0.0
2017-Nov-15 23:29N 58°06' E 006°48'0 0.0
2017-Nov-15 23:00N 58°06' E 006°48'0 0.0
2017-Nov-15 22:29N 58°06' E 006°48'0 0.0
2017-Nov-15 21:59N 58°06' E 006°48'0 0.0
2017-Nov-15 21:30N 58°06' E 006°48'0 0.0
2017-Nov-15 20:59N 58°06' E 006°48'0 0.0
2017-Nov-15 20:30N 58°06' E 006°48'0 0.0
2017-Nov-15 19:59N 58°06' E 006°48'0 0.0
2017-Nov-15 19:29N 58°06' E 006°48'0 0.0
2017-Nov-15 19:00N 58°06' E 006°48'0 0.0
2017-Nov-15 18:30N 58°06' E 006°48'0 0.0
2017-Nov-15 17:59N 58°06' E 006°48'0 0.0
2017-Nov-15 17:29N 58°06' E 006°48'0 0.0
2017-Nov-15 16:59N 58°06' E 006°48'0 0.0
2017-Nov-15 16:29N 58°06' E 006°48'0 0.0
2017-Nov-15 15:59N 58°06' E 006°48'0 0.0
2017-Nov-15 15:29N 58°06' E 006°48'0 0.0
2017-Nov-15 14:59N 58°06' E 006°48'0 0.0
2017-Nov-15 14:29N 58°06' E 006°48'0 0.0
2017-Nov-15 13:59N 58°06' E 006°48'0 0.0
2017-Nov-15 13:29N 58°06' E 006°48'0 0.0
2017-Nov-15 12:59N 58°06' E 006°48'0 0.0
2017-Nov-15 12:29N 58°06' E 006°48'0 0.0
2017-Nov-15 12:00N 58°06' E 006°48'  
Track history (hours):
 
Tides and Currents Weather Stations Pressure Air Temp Water Temp Dewpoint Dewpoint Depression Visibility Wind Speed Wind Dir Waves Ship Positions

Oscar Tybring IV

Last reported at 2017-Nov-25 11:30 UTC. Time now 2017-Nov-25 11:50 UTC.
Position N 58°06' E 006°48'.

Length 20 m.

Type: SAR. MMSI: 257231500.

Date/timePositionNaut miles runAvg speedWind from/ knotsBaromVisibWave heightAir tempDewpointWater temp
2017-Nov-25 11:30N 58°06' E 006°48'0 0.0
2017-Nov-25 11:00N 58°06' E 006°48'1 2.7
2017-Nov-25 10:30N 58°05' E 006°50'1 2.7
2017-Nov-25 10:00N 58°03' E 006°51'3 5.0
2017-Nov-25 09:28N 58°06' E 006°48'0 0.0
2017-Nov-25 08:58N 58°06' E 006°48'4 7.9
2017-Nov-25 08:30N 58°03' E 006°54'3 6.3
2017-Nov-25 08:00N 58°05' E 006°49'0 0.9
2017-Nov-25 07:28N 58°06' E 006°48'0 0.0
2017-Nov-25 06:58N 58°06' E 006°48'0 0.0
2017-Nov-25 06:28N 58°06' E 006°48'0 0.0
2017-Nov-25 05:58N 58°06' E 006°48'0 0.0
2017-Nov-25 05:28N 58°06' E 006°48'0 0.0
2017-Nov-25 04:58N 58°06' E 006°48'0 0.0
2017-Nov-25 04:28N 58°06' E 006°48'0 0.0
2017-Nov-25 03:58N 58°06' E 006°48'0 0.0
2017-Nov-25 03:28N 58°06' E 006°48'0 0.0
2017-Nov-25 02:58N 58°06' E 006°48'0 0.0
2017-Nov-25 02:28N 58°06' E 006°48'0 0.0
2017-Nov-25 01:58N 58°06' E 006°48'0 0.0
2017-Nov-25 01:28N 58°06' E 006°48'0 0.0
2017-Nov-25 00:55N 58°06' E 006°48'0 0.0
2017-Nov-25 00:28N 58°06' E 006°48'0 0.0
2017-Nov-24 23:58N 58°06' E 006°48'0 0.0
2017-Nov-24 23:28N 58°06' E 006°48'0 0.0
2017-Nov-24 22:58N 58°06' E 006°48'0 0.0
2017-Nov-24 22:25N 58°06' E 006°48'0 0.0
2017-Nov-24 21:58N 58°06' E 006°48'0 0.0
2017-Nov-24 21:28N 58°06' E 006°48'0 0.0
2017-Nov-24 20:58N 58°06' E 006°48'0 0.0
2017-Nov-24 20:28N 58°06' E 006°48'0 0.0
2017-Nov-24 19:58N 58°06' E 006°48'0 0.0
2017-Nov-24 19:28N 58°06' E 006°48'0 0.0
2017-Nov-24 18:55N 58°06' E 006°48'0 0.0
2017-Nov-24 18:28N 58°06' E 006°48'0 0.0
2017-Nov-24 17:58N 58°06' E 006°48'0 0.0
2017-Nov-24 17:28N 58°06' E 006°48'0 0.0
2017-Nov-24 16:58N 58°06' E 006°48'0 0.0
2017-Nov-24 16:28N 58°06' E 006°48'0 0.0
2017-Nov-24 15:58N 58°06' E 006°48'0 0.0
2017-Nov-24 15:28N 58°06' E 006°48'0 0.0
2017-Nov-24 14:58N 58°06' E 006°48'0 0.0
2017-Nov-24 14:28N 58°06' E 006°48'0 0.0
2017-Nov-24 13:58N 58°06' E 006°48'0 0.0
2017-Nov-24 13:28N 58°06' E 006°48'0 0.0
2017-Nov-24 12:58N 58°06' E 006°48'0 0.0
2017-Nov-24 12:28N 58°06' E 006°48'0 0.0
2017-Nov-24 11:57N 58°06' E 006°48'0 0.0
2017-Nov-24 11:30N 58°06' E 006°48'0 0.0
2017-Nov-24 11:00N 58°06' E 006°48'0 0.0
2017-Nov-24 10:29N 58°06' E 006°48'611.9
2017-Nov-24 10:00N 58°00' E 006°52'5 9.8
2017-Nov-24 09:29N 58°05' E 006°49'1 1.4
2017-Nov-24 08:58N 58°06' E 006°48'0 0.0
2017-Nov-24 08:26N 58°06' E 006°48'0 0.0
2017-Nov-24 07:55N 58°06' E 006°48'0 0.0
2017-Nov-24 07:28N 58°06' E 006°48'2 4.4
2017-Nov-24 07:00N 58°04' E 006°51'2 3.8
2017-Nov-24 06:30N 58°06' E 006°49'0 0.3
2017-Nov-24 06:00N 58°06' E 006°48'0 0.0
2017-Nov-24 05:30N 58°06' E 006°48'0 0.0
2017-Nov-24 05:00N 58°06' E 006°48'0 0.0
2017-Nov-24 04:30N 58°06' E 006°48'0 0.0
2017-Nov-24 04:00N 58°06' E 006°48'0 0.0
2017-Nov-24 03:30N 58°06' E 006°48'0 0.0
2017-Nov-24 03:00N 58°06' E 006°48'0 0.0
2017-Nov-24 02:30N 58°06' E 006°48'0 0.0
2017-Nov-24 02:00N 58°06' E 006°48'0 0.0
2017-Nov-24 01:30N 58°06' E 006°48'0 0.0
2017-Nov-24 01:00N 58°06' E 006°48'0 0.0
2017-Nov-24 00:30N 58°06' E 006°48'0 0.0
2017-Nov-23 23:57N 58°06' E 006°48'0 0.0
2017-Nov-23 23:30N 58°06' E 006°48'0 0.0
2017-Nov-23 23:00N 58°06' E 006°48'0 0.0
2017-Nov-23 22:30N 58°06' E 006°48'0 0.0
2017-Nov-23 22:00N 58°06' E 006°48'0 0.0
2017-Nov-23 21:27N 58°06' E 006°48'0 0.0
2017-Nov-23 21:00N 58°06' E 006°48'0 0.0
2017-Nov-23 20:30N 58°06' E 006°48'0 0.0
2017-Nov-23 20:00N 58°06' E 006°48'0 0.0
2017-Nov-23 19:30N 58°06' E 006°48'0 0.0
2017-Nov-23 19:00N 58°06' E 006°48'0 0.0
2017-Nov-23 18:30N 58°06' E 006°48'0 0.0
2017-Nov-23 18:00N 58°06' E 006°48'0 0.0
2017-Nov-23 17:30N 58°06' E 006°48'0 0.0
2017-Nov-23 17:00N 58°06' E 006°48'0 0.0
2017-Nov-23 16:30N 58°06' E 006°48'0 0.0
2017-Nov-23 16:00N 58°06' E 006°48'0 0.0
2017-Nov-23 15:30N 58°06' E 006°48'0 0.0
2017-Nov-23 15:00N 58°06' E 006°48'0 0.0
2017-Nov-23 14:30N 58°06' E 006°48'0 0.0
2017-Nov-23 14:00N 58°06' E 006°48'0 0.0
2017-Nov-23 13:30N 58°06' E 006°48'0 0.0
2017-Nov-23 13:00N 58°06' E 006°48'0 0.0
2017-Nov-23 12:30N 58°06' E 006°48'0 0.0
2017-Nov-23 12:00N 58°06' E 006°48'0 0.0
2017-Nov-23 11:30N 58°06' E 006°48'0 0.0
2017-Nov-23 11:00N 58°06' E 006°48'0 0.0
2017-Nov-23 10:30N 58°06' E 006°48'0 0.0
2017-Nov-23 10:00N 58°06' E 006°48'0 0.0
2017-Nov-23 09:30N 58°06' E 006°48'0 0.0
2017-Nov-23 09:00N 58°06' E 006°48'0 0.0
2017-Nov-23 08:30N 58°06' E 006°48'0 0.0
2017-Nov-23 08:00N 58°06' E 006°48'0 0.0
2017-Nov-23 07:30N 58°06' E 006°48'0 0.0
2017-Nov-23 07:00N 58°06' E 006°48'0 0.0
2017-Nov-23 06:30N 58°06' E 006°48'0 0.0
2017-Nov-23 06:00N 58°06' E 006°48'0 0.0
2017-Nov-23 05:30N 58°06' E 006°48'0 0.0
2017-Nov-23 05:00N 58°06' E 006°48'0 0.0
2017-Nov-23 04:30N 58°06' E 006°48'0 0.0
2017-Nov-23 04:00N 58°06' E 006°48'0 0.0
2017-Nov-23 03:30N 58°06' E 006°48'0 0.0
2017-Nov-23 03:00N 58°06' E 006°48'0 0.0
2017-Nov-23 02:30N 58°06' E 006°48'0 0.0
2017-Nov-23 02:00N 58°06' E 006°48'0 0.0
2017-Nov-23 01:30N 58°06' E 006°48'0 0.0
2017-Nov-23 01:00N 58°06' E 006°48'0 0.0
2017-Nov-23 00:30N 58°06' E 006°48'0 0.0
2017-Nov-23 00:00N 58°06' E 006°48'0 0.0
2017-Nov-22 23:30N 58°06' E 006°48'0 0.0
2017-Nov-22 23:00N 58°06' E 006°48'0 0.0
2017-Nov-22 22:30N 58°06' E 006°48'0 0.0
2017-Nov-22 22:00N 58°06' E 006°48'0 0.0
2017-Nov-22 21:30N 58°06' E 006°48'0 0.0
2017-Nov-22 21:00N 58°06' E 006°48'0 0.0
2017-Nov-22 20:30N 58°06' E 006°48'0 0.0
2017-Nov-22 20:00N 58°06' E 006°48'0 0.0
2017-Nov-22 19:30N 58°06' E 006°48'  
2017-Nov-20 00:28N 58°06' E 006°48'0 0.0
2017-Nov-19 23:58N 58°06' E 006°48'0 0.0
2017-Nov-19 23:28N 58°06' E 006°48'0 0.0
2017-Nov-19 22:58N 58°06' E 006°48'0 0.0
2017-Nov-19 22:28N 58°06' E 006°48'0 0.0
2017-Nov-19 21:58N 58°06' E 006°48'0 0.0
2017-Nov-19 21:28N 58°06' E 006°48'0 0.0
2017-Nov-19 20:58N 58°06' E 006°48'0 0.0
2017-Nov-19 20:28N 58°06' E 006°48'0 0.0
2017-Nov-19 19:58N 58°06' E 006°48'0 0.0
2017-Nov-19 19:28N 58°06' E 006°48'0 0.0
2017-Nov-19 18:58N 58°06' E 006°48'0 0.0
2017-Nov-19 18:28N 58°06' E 006°48'0 0.0
2017-Nov-19 17:58N 58°06' E 006°48'0 0.0
2017-Nov-19 17:28N 58°06' E 006°48'0 0.0
2017-Nov-19 16:58N 58°06' E 006°48'0 0.0
2017-Nov-19 16:28N 58°06' E 006°48'0 0.0
2017-Nov-19 15:58N 58°06' E 006°48'0 0.0
2017-Nov-19 15:28N 58°06' E 006°48'0 0.0
2017-Nov-19 14:58N 58°06' E 006°48'0 0.0
2017-Nov-19 14:28N 58°06' E 006°48'0 0.0
2017-Nov-19 13:58N 58°06' E 006°48'0 0.0
2017-Nov-19 13:28N 58°06' E 006°48'0 0.0
2017-Nov-19 12:58N 58°06' E 006°48'0 0.0
2017-Nov-19 12:28N 58°06' E 006°48'0 0.0
2017-Nov-19 11:58N 58°06' E 006°48'0 0.0
2017-Nov-19 11:28N 58°06' E 006°48'0 0.0
2017-Nov-19 10:58N 58°06' E 006°48'0 0.0
2017-Nov-19 10:28N 58°06' E 006°48'0 0.0
2017-Nov-19 09:58N 58°06' E 006°48'0 0.0
2017-Nov-19 09:28N 58°06' E 006°48'0 0.0
2017-Nov-19 08:58N 58°06' E 006°48'0 0.0
2017-Nov-19 08:28N 58°06' E 006°48'0 0.0
2017-Nov-19 07:58N 58°06' E 006°48'0 0.0
2017-Nov-19 07:28N 58°06' E 006°48'0 0.0
2017-Nov-19 06:58N 58°06' E 006°48'0 0.0
2017-Nov-19 06:28N 58°06' E 006°48'0 0.0
2017-Nov-19 05:58N 58°06' E 006°48'0 0.0
2017-Nov-19 05:28N 58°06' E 006°48'0 0.0
2017-Nov-19 04:58N 58°06' E 006°48'0 0.0
2017-Nov-19 04:28N 58°06' E 006°48'0 0.0
2017-Nov-19 03:58N 58°06' E 006°48'0 0.0
2017-Nov-19 03:28N 58°06' E 006°48'0 0.0
2017-Nov-19 02:58N 58°06' E 006°48'0 0.0
2017-Nov-19 02:28N 58°06' E 006°48'0 0.0
2017-Nov-19 01:58N 58°06' E 006°48'0 0.0
2017-Nov-19 01:28N 58°06' E 006°48'0 0.0
2017-Nov-19 00:58N 58°06' E 006°48'0 0.0
2017-Nov-19 00:28N 58°06' E 006°48'0 0.0
2017-Nov-18 23:58N 58°06' E 006°48'0 0.0
2017-Nov-18 23:28N 58°06' E 006°48'0 0.0
2017-Nov-18 22:58N 58°06' E 006°48'0 0.0
2017-Nov-18 22:28N 58°06' E 006°48'0 0.0
2017-Nov-18 21:58N 58°06' E 006°48'0 0.0
2017-Nov-18 21:28N 58°06' E 006°48'0 0.0
2017-Nov-18 20:58N 58°06' E 006°48'0 0.0
2017-Nov-18 20:28N 58°06' E 006°48'0 0.0
2017-Nov-18 19:58N 58°06' E 006°48'0 0.0
2017-Nov-18 19:28N 58°06' E 006°48'0 0.0
2017-Nov-18 18:58N 58°06' E 006°48'0 0.0
2017-Nov-18 18:28N 58°06' E 006°48'0 0.0
2017-Nov-18 17:58N 58°06' E 006°48'0 0.0
2017-Nov-18 17:28N 58°06' E 006°48'0 0.0
2017-Nov-18 16:58N 58°06' E 006°48'0 0.0
2017-Nov-18 16:28N 58°06' E 006°48'0 0.0
2017-Nov-18 15:58N 58°06' E 006°48'0 0.0
2017-Nov-18 15:28N 58°06' E 006°48'0 0.0
2017-Nov-18 14:58N 58°06' E 006°48'0 0.0
2017-Nov-18 14:28N 58°06' E 006°48'0 0.0
2017-Nov-18 13:58N 58°06' E 006°48'0 0.0
2017-Nov-18 13:28N 58°06' E 006°48'0 0.0
2017-Nov-18 12:58N 58°06' E 006°48'0 0.0
2017-Nov-18 12:28N 58°06' E 006°48'0 0.0
2017-Nov-18 11:58N 58°06' E 006°48'0 0.0
2017-Nov-18 11:28N 58°06' E 006°48'0 0.0
2017-Nov-18 10:58N 58°06' E 006°48'0 0.0
2017-Nov-18 10:28N 58°06' E 006°48'0 0.0
2017-Nov-18 09:58N 58°06' E 006°48'0 0.0
2017-Nov-18 09:25N 58°06' E 006°48'0 0.0
2017-Nov-18 08:58N 58°06' E 006°48'0 0.0
2017-Nov-18 08:28N 58°06' E 006°48'0 0.0
2017-Nov-18 07:58N 58°06' E 006°48'0 0.0
2017-Nov-18 07:28N 58°06' E 006°48'0 0.0
2017-Nov-18 06:58N 58°06' E 006°48'0 0.0
2017-Nov-18 06:28N 58°06' E 006°48'0 0.0
2017-Nov-18 05:58N 58°06' E 006°48'0 0.0
2017-Nov-18 05:28N 58°06' E 006°48'0 0.0
2017-Nov-18 04:58N 58°06' E 006°48'0 0.0
2017-Nov-18 04:28N 58°06' E 006°48'0 0.0
2017-Nov-18 03:58N 58°06' E 006°48'0 0.0
2017-Nov-18 03:28N 58°06' E 006°48'0 0.0
2017-Nov-18 02:58N 58°06' E 006°48'0 0.0
2017-Nov-18 02:28N 58°06' E 006°48'0 0.0
2017-Nov-18 01:58N 58°06' E 006°48'0 0.0
2017-Nov-18 01:28N 58°06' E 006°48'0 0.0
2017-Nov-18 00:58N 58°06' E 006°48'0 0.0
2017-Nov-18 00:28N 58°06' E 006°48'0 0.0
2017-Nov-17 23:58N 58°06' E 006°48'0 0.0
2017-Nov-17 23:28N 58°06' E 006°48'0 0.0
2017-Nov-17 22:58N 58°06' E 006°48'0 0.0
2017-Nov-17 22:28N 58°06' E 006°48'0 0.0
2017-Nov-17 21:58N 58°06' E 006°48'0 0.0
2017-Nov-17 21:28N 58°06' E 006°48'0 0.0
2017-Nov-17 20:58N 58°06' E 006°48'0 0.0
2017-Nov-17 20:28N 58°06' E 006°48'0 0.0
2017-Nov-17 19:58N 58°06' E 006°48'0 0.0
2017-Nov-17 19:28N 58°06' E 006°48'0 0.0
2017-Nov-17 18:58N 58°06' E 006°48'0 0.0
2017-Nov-17 18:25N 58°06' E 006°48'0 0.0
2017-Nov-17 17:58N 58°06' E 006°48'0 0.0
2017-Nov-17 17:28N 58°06' E 006°48'0 0.0
2017-Nov-17 16:58N 58°06' E 006°48'0 0.0
2017-Nov-17 16:28N 58°06' E 006°48'0 0.0
2017-Nov-17 15:58N 58°06' E 006°48'0 0.0
2017-Nov-17 15:28N 58°06' E 006°48'0 0.0
2017-Nov-17 14:58N 58°06' E 006°48'0 0.0
2017-Nov-17 14:28N 58°06' E 006°48'0 0.0
2017-Nov-17 13:58N 58°06' E 006°48'0 0.0
2017-Nov-17 13:30N 58°06' E 006°48'0 0.0
2017-Nov-17 13:00N 58°06' E 006°48'0 0.0
2017-Nov-17 12:30N 58°06' E 006°48'0 0.0
2017-Nov-17 12:00N 58°06' E 006°48'0 0.0
2017-Nov-17 11:30N 58°06' E 006°48'0 0.0
2017-Nov-17 11:00N 58°06' E 006°48'0 0.0
2017-Nov-17 10:30N 58°06' E 006°48'4 7.4
2017-Nov-17 09:58N 58°09' E 006°51'2 3.7
2017-Nov-17 09:29N 58°11' E 006°52'2 4.5
2017-Nov-17 09:00N 58°09' E 006°49'2 4.7
2017-Nov-17 08:30N 58°08' E 006°52'3 6.0
2017-Nov-17 08:00N 58°06' E 006°48'0 0.0
2017-Nov-17 07:30N 58°06' E 006°48'0 0.0
2017-Nov-17 06:59N 58°06' E 006°48'0 0.0
2017-Nov-17 06:29N 58°06' E 006°48'0 0.0
2017-Nov-17 06:00N 58°06' E 006°48'0 0.0
2017-Nov-17 05:30N 58°06' E 006°48'0 0.0
2017-Nov-17 05:00N 58°06' E 006°48'0 0.0
2017-Nov-17 04:29N 58°06' E 006°48'0 0.0
2017-Nov-17 04:00N 58°06' E 006°48'0 0.0
2017-Nov-17 03:30N 58°06' E 006°48'0 0.0
2017-Nov-17 02:59N 58°06' E 006°48'0 0.0
2017-Nov-17 02:29N 58°06' E 006°48'0 0.0
2017-Nov-17 01:59N 58°06' E 006°48'0 0.0
2017-Nov-17 01:29N 58°06' E 006°48'0 0.0
2017-Nov-17 01:00N 58°06' E 006°48'0 0.0
2017-Nov-17 00:29N 58°06' E 006°48'0 0.0
2017-Nov-16 23:59N 58°06' E 006°48'0 0.0
2017-Nov-16 23:30N 58°06' E 006°48'0 0.0
2017-Nov-16 22:59N 58°06' E 006°48'0 0.0
2017-Nov-16 22:30N 58°06' E 006°48'0 0.0
2017-Nov-16 21:59N 58°06' E 006°48'0 0.0
2017-Nov-16 21:30N 58°06' E 006°48'0 0.0
2017-Nov-16 20:59N 58°06' E 006°48'0 0.0
2017-Nov-16 20:29N 58°06' E 006°48'0 0.0
2017-Nov-16 19:59N 58°06' E 006°48'0 0.0
2017-Nov-16 19:29N 58°06' E 006°48'0 0.0
2017-Nov-16 19:00N 58°06' E 006°48'0 0.0
2017-Nov-16 18:29N 58°06' E 006°48'0 0.0
2017-Nov-16 17:59N 58°06' E 006°48'0 0.0
2017-Nov-16 17:29N 58°06' E 006°48'0 0.0
2017-Nov-16 16:59N 58°06' E 006°48'0 0.0
2017-Nov-16 16:29N 58°06' E 006°48'0 0.0
2017-Nov-16 16:00N 58°06' E 006°48'0 0.0
2017-Nov-16 15:29N 58°06' E 006°48'0 0.0
2017-Nov-16 14:59N 58°06' E 006°48'0 0.0
2017-Nov-16 14:29N 58°06' E 006°48'0 0.0
2017-Nov-16 13:59N 58°06' E 006°48'0 0.0
2017-Nov-16 13:29N 58°06' E 006°48'0 0.0
2017-Nov-16 13:00N 58°06' E 006°48'0 0.0
2017-Nov-16 12:29N 58°06' E 006°48'0 0.0
2017-Nov-16 12:00N 58°06' E 006°48'0 0.0
2017-Nov-16 11:30N 58°06' E 006°48'0 0.0
2017-Nov-16 11:00N 58°06' E 006°48'0 0.0
2017-Nov-16 10:29N 58°06' E 006°48'0 0.0
2017-Nov-16 09:59N 58°06' E 006°48'0 0.0
2017-Nov-16 09:29N 58°06' E 006°48'0 0.0
2017-Nov-16 09:00N 58°06' E 006°48'0 0.0
2017-Nov-16 08:29N 58°06' E 006°48'0 0.0
2017-Nov-16 07:59N 58°06' E 006°48'0 0.0
2017-Nov-16 07:30N 58°06' E 006°48'0 0.0
2017-Nov-16 06:59N 58°06' E 006°48'0 0.0
2017-Nov-16 06:29N 58°06' E 006°48'0 0.0
2017-Nov-16 05:59N 58°06' E 006°48'0 0.0
2017-Nov-16 05:29N 58°06' E 006°48'0 0.0
2017-Nov-16 04:59N 58°06' E 006°48'0 0.0
2017-Nov-16 04:30N 58°06' E 006°48'0 0.0
2017-Nov-16 03:59N 58°06' E 006°48'0 0.0
2017-Nov-16 03:30N 58°06' E 006°48'0 0.0
2017-Nov-16 03:00N 58°06' E 006°48'0 0.0
2017-Nov-16 02:29N 58°06' E 006°48'0 0.0
2017-Nov-16 01:59N 58°06' E 006°48'0 0.0
2017-Nov-16 01:30N 58°06' E 006°48'0 0.0
2017-Nov-16 00:59N 58°06' E 006°48'0 0.0
2017-Nov-16 00:29N 58°06' E 006°48'0 0.0
2017-Nov-15 23:59N 58°06' E 006°48'0 0.0
2017-Nov-15 23:29N 58°06' E 006°48'0 0.0
2017-Nov-15 23:00N 58°06' E 006°48'0 0.0
2017-Nov-15 22:29N 58°06' E 006°48'0 0.0
2017-Nov-15 21:59N 58°06' E 006°48'0 0.0
2017-Nov-15 21:30N 58°06' E 006°48'0 0.0
2017-Nov-15 20:59N 58°06' E 006°48'0 0.0
2017-Nov-15 20:30N 58°06' E 006°48'0 0.0
2017-Nov-15 19:59N 58°06' E 006°48'0 0.0
2017-Nov-15 19:29N 58°06' E 006°48'0 0.0
2017-Nov-15 19:00N 58°06' E 006°48'0 0.0
2017-Nov-15 18:30N 58°06' E 006°48'0 0.0
2017-Nov-15 17:59N 58°06' E 006°48'0 0.0
2017-Nov-15 17:29N 58°06' E 006°48'0 0.0
2017-Nov-15 16:59N 58°06' E 006°48'0 0.0
2017-Nov-15 16:29N 58°06' E 006°48'0 0.0
2017-Nov-15 15:59N 58°06' E 006°48'0 0.0
2017-Nov-15 15:29N 58°06' E 006°48'0 0.0
2017-Nov-15 14:59N 58°06' E 006°48'0 0.0
2017-Nov-15 14:29N 58°06' E 006°48'0 0.0
2017-Nov-15 13:59N 58°06' E 006°48'0 0.0
2017-Nov-15 13:29N 58°06' E 006°48'0 0.0
2017-Nov-15 12:59N 58°06' E 006°48'0 0.0
2017-Nov-15 12:29N 58°06' E 006°48'0 0.0
2017-Nov-15 12:00N 58°06' E 006°48'  

Dump ship's entire track history